sensor_id;sensor_type;location;lat;lon;timestamp;P1;durP1;ratioP1;P2;durP2;ratioP2
27576;SDS011;15011;53.380;10.034;2022-11-11T00:01:52;11.57;;;2.47;;
27576;SDS011;15011;53.380;10.034;2022-11-11T00:06:53;9.77;;;2.65;;
27576;SDS011;15011;53.380;10.034;2022-11-11T00:11:53;11.65;;;2.95;;
27576;SDS011;15011;53.380;10.034;2022-11-11T00:16:54;6.97;;;2.40;;
27576;SDS011;15011;53.380;10.034;2022-11-11T00:22:22;11.30;;;2.88;;
27576;SDS011;15011;53.380;10.034;2022-11-11T00:27:41;14.02;;;3.47;;
27576;SDS011;15011;53.380;10.034;2022-11-11T00:32:41;10.68;;;3.10;;
27576;SDS011;15011;53.380;10.034;2022-11-11T00:37:43;15.95;;;3.55;;
27576;SDS011;15011;53.380;10.034;2022-11-11T00:42:44;16.88;;;3.90;;
27576;SDS011;15011;53.380;10.034;2022-11-11T00:47:45;17.52;;;4.30;;
27576;SDS011;15011;53.380;10.034;2022-11-11T00:53:06;16.25;;;3.85;;
27576;SDS011;15011;53.380;10.034;2022-11-11T00:58:09;19.00;;;3.97;;
27576;SDS011;15011;53.380;10.034;2022-11-11T01:03:09;9.30;;;3.60;;
27576;SDS011;15011;53.380;10.034;2022-11-11T01:08:10;10.30;;;4.10;;
27576;SDS011;15011;53.380;10.034;2022-11-11T01:13:23;11.70;;;4.40;;
27576;SDS011;15011;53.380;10.034;2022-11-11T01:18:25;16.15;;;5.13;;
27576;SDS011;15011;53.380;10.034;2022-11-11T01:23:26;12.20;;;5.57;;
27576;SDS011;15011;53.380;10.034;2022-11-11T01:28:27;11.18;;;5.68;;
27576;SDS011;15011;53.380;10.034;2022-11-11T01:33:27;13.02;;;5.72;;
27576;SDS011;15011;53.380;10.034;2022-11-11T01:38:28;19.48;;;5.80;;
27576;SDS011;15011;53.380;10.034;2022-11-11T01:43:28;13.33;;;4.93;;
27576;SDS011;15011;53.380;10.034;2022-11-11T01:48:39;14.35;;;5.07;;
27576;SDS011;15011;53.380;10.034;2022-11-11T01:54:16;12.10;;;4.13;;
27576;SDS011;15011;53.380;10.034;2022-11-11T01:59:19;15.98;;;4.05;;
27576;SDS011;15011;53.380;10.034;2022-11-11T02:04:20;11.70;;;3.88;;
27576;SDS011;15011;53.380;10.034;2022-11-11T02:09:41;13.68;;;4.43;;
27576;SDS011;15011;53.380;10.034;2022-11-11T02:14:44;11.75;;;3.55;;
27576;SDS011;15011;53.380;10.034;2022-11-11T02:19:57;13.70;;;3.70;;
27576;SDS011;15011;53.380;10.034;2022-11-11T02:24:59;14.15;;;3.80;;
27576;SDS011;15011;53.380;10.034;2022-11-11T02:30:00;11.37;;;3.83;;
27576;SDS011;15011;53.380;10.034;2022-11-11T02:35:01;8.30;;;3.55;;
27576;SDS011;15011;53.380;10.034;2022-11-11T02:40:01;11.30;;;4.15;;
27576;SDS011;15011;53.380;10.034;2022-11-11T02:45:03;14.95;;;3.80;;
27576;SDS011;15011;53.380;10.034;2022-11-11T02:50:04;15.68;;;4.38;;
27576;SDS011;15011;53.380;10.034;2022-11-11T02:55:05;10.88;;;3.58;;
27576;SDS011;15011;53.380;10.034;2022-11-11T03:00:06;11.85;;;3.95;;
27576;SDS011;15011;53.380;10.034;2022-11-11T03:05:07;10.40;;;4.07;;
27576;SDS011;15011;53.380;10.034;2022-11-11T03:10:08;9.20;;;3.88;;
27576;SDS011;15011;53.380;10.034;2022-11-11T03:15:09;12.50;;;4.32;;
27576;SDS011;15011;53.380;10.034;2022-11-11T03:20:11;13.63;;;4.75;;
27576;SDS011;15011;53.380;10.034;2022-11-11T03:25:38;12.98;;;4.05;;
27576;SDS011;15011;53.380;10.034;2022-11-11T03:30:40;12.68;;;4.32;;
27576;SDS011;15011;53.380;10.034;2022-11-11T03:35:42;14.73;;;5.10;;
27576;SDS011;15011;53.380;10.034;2022-11-11T03:40:43;13.63;;;5.28;;
27576;SDS011;15011;53.380;10.034;2022-11-11T03:45:44;14.17;;;5.60;;
27576;SDS011;15011;53.380;10.034;2022-11-11T03:50:45;15.77;;;5.75;;
27576;SDS011;15011;53.380;10.034;2022-11-11T03:55:47;14.20;;;5.00;;
27576;SDS011;15011;53.380;10.034;2022-11-11T04:00:48;15.00;;;5.32;;
27576;SDS011;15011;53.380;10.034;2022-11-11T04:05:48;14.50;;;5.47;;
27576;SDS011;15011;53.380;10.034;2022-11-11T04:11:23;14.07;;;5.03;;
27576;SDS011;15011;53.380;10.034;2022-11-11T04:16:26;12.10;;;4.53;;
27576;SDS011;15011;53.380;10.034;2022-11-11T04:21:27;13.07;;;5.50;;
27576;SDS011;15011;53.380;10.034;2022-11-11T04:26:43;14.30;;;5.32;;
27576;SDS011;15011;53.380;10.034;2022-11-11T04:31:43;13.05;;;5.30;;
27576;SDS011;15011;53.380;10.034;2022-11-11T04:37:02;15.38;;;5.32;;
27576;SDS011;15011;53.380;10.034;2022-11-11T04:42:02;12.73;;;4.80;;
27576;SDS011;15011;53.380;10.034;2022-11-11T04:47:03;17.48;;;5.65;;
27576;SDS011;15011;53.380;10.034;2022-11-11T04:52:03;16.02;;;6.03;;
27576;SDS011;15011;53.380;10.034;2022-11-11T04:57:30;12.63;;;5.55;;
27576;SDS011;15011;53.380;10.034;2022-11-11T05:02:30;19.25;;;5.72;;
27576;SDS011;15011;53.380;10.034;2022-11-11T05:07:49;14.00;;;5.63;;
27576;SDS011;15011;53.380;10.034;2022-11-11T05:13:10;14.93;;;6.10;;
27576;SDS011;15011;53.380;10.034;2022-11-11T05:18:29;11.52;;;5.63;;
27576;SDS011;15011;53.380;10.034;2022-11-11T05:23:48;15.80;;;6.45;;
27576;SDS011;15011;53.380;10.034;2022-11-11T05:29:07;10.82;;;5.90;;
27576;SDS011;15011;53.380;10.034;2022-11-11T05:34:08;14.07;;;6.47;;
27576;SDS011;15011;53.380;10.034;2022-11-11T05:39:08;18.98;;;7.10;;
27576;SDS011;15011;53.380;10.034;2022-11-11T05:44:09;15.02;;;7.43;;
27576;SDS011;15011;53.380;10.034;2022-11-11T05:49:09;16.33;;;7.50;;
27576;SDS011;15011;53.380;10.034;2022-11-11T05:54:15;14.77;;;6.80;;
27576;SDS011;15011;53.380;10.034;2022-11-11T05:59:16;18.95;;;7.30;;
27576;SDS011;15011;53.380;10.034;2022-11-11T06:04:17;18.90;;;7.43;;
27576;SDS011;15011;53.380;10.034;2022-11-11T06:09:17;19.27;;;7.93;;
27576;SDS011;15011;53.380;10.034;2022-11-11T06:14:18;13.30;;;7.32;;
27576;SDS011;15011;53.380;10.034;2022-11-11T06:19:18;19.10;;;8.18;;
27576;SDS011;15011;53.380;10.034;2022-11-11T06:24:19;15.00;;;7.40;;
27576;SDS011;15011;53.380;10.034;2022-11-11T06:29:20;14.57;;;8.35;;
27576;SDS011;15011;53.380;10.034;2022-11-11T06:34:20;21.05;;;7.97;;
27576;SDS011;15011;53.380;10.034;2022-11-11T06:39:20;19.20;;;8.02;;
27576;SDS011;15011;53.380;10.034;2022-11-11T06:44:21;16.92;;;7.93;;
27576;SDS011;15011;53.380;10.034;2022-11-11T06:49:21;20.23;;;8.93;;
27576;SDS011;15011;53.380;10.034;2022-11-11T06:54:22;20.70;;;9.40;;
27576;SDS011;15011;53.380;10.034;2022-11-11T06:59:22;22.55;;;9.65;;
27576;SDS011;15011;53.380;10.034;2022-11-11T07:04:23;21.50;;;9.43;;
27576;SDS011;15011;53.380;10.034;2022-11-11T07:09:23;27.10;;;10.95;;
27576;SDS011;15011;53.380;10.034;2022-11-11T07:14:25;22.98;;;10.90;;
27576;SDS011;15011;53.380;10.034;2022-11-11T07:19:26;24.40;;;9.32;;
27576;SDS011;15011;53.380;10.034;2022-11-11T07:24:26;23.58;;;11.00;;
27576;SDS011;15011;53.380;10.034;2022-11-11T07:29:27;22.67;;;12.15;;
27576;SDS011;15011;53.380;10.034;2022-11-11T07:34:28;28.55;;;13.80;;
27576;SDS011;15011;53.380;10.034;2022-11-11T07:39:28;30.38;;;14.32;;
27576;SDS011;15011;53.380;10.034;2022-11-11T07:44:29;27.83;;;13.20;;
27576;SDS011;15011;53.380;10.034;2022-11-11T07:49:29;27.25;;;14.20;;
27576;SDS011;15011;53.380;10.034;2022-11-11T07:54:30;30.33;;;14.52;;
27576;SDS011;15011;53.380;10.034;2022-11-11T07:59:31;24.23;;;13.25;;
27576;SDS011;15011;53.380;10.034;2022-11-11T08:04:31;27.27;;;14.18;;
27576;SDS011;15011;53.380;10.034;2022-11-11T08:09:32;26.85;;;13.27;;
27576;SDS011;15011;53.380;10.034;2022-11-11T08:14:32;27.83;;;13.05;;
27576;SDS011;15011;53.380;10.034;2022-11-11T08:19:33;20.70;;;11.90;;
27576;SDS011;15011;53.380;10.034;2022-11-11T08:24:33;25.15;;;13.13;;
27576;SDS011;15011;53.380;10.034;2022-11-11T08:29:34;21.42;;;13.30;;
27576;SDS011;15011;53.380;10.034;2022-11-11T08:34:34;25.70;;;13.75;;
27576;SDS011;15011;53.380;10.034;2022-11-11T08:39:35;28.15;;;14.10;;
27576;SDS011;15011;53.380;10.034;2022-11-11T08:44:35;19.30;;;12.63;;
27576;SDS011;15011;53.380;10.034;2022-11-11T08:49:36;27.50;;;14.05;;
27576;SDS011;15011;53.380;10.034;2022-11-11T08:54:36;25.35;;;13.50;;
27576;SDS011;15011;53.380;10.034;2022-11-11T08:59:36;25.23;;;13.87;;
27576;SDS011;15011;53.380;10.034;2022-11-11T09:04:37;28.23;;;14.98;;
27576;SDS011;15011;53.380;10.034;2022-11-11T09:09:38;28.37;;;15.23;;
27576;SDS011;15011;53.380;10.034;2022-11-11T09:14:39;24.35;;;13.00;;
27576;SDS011;15011;53.380;10.034;2022-11-11T09:19:40;23.85;;;13.32;;
27576;SDS011;15011;53.380;10.034;2022-11-11T09:24:40;28.77;;;13.32;;
27576;SDS011;15011;53.380;10.034;2022-11-11T09:29:41;26.65;;;13.98;;
27576;SDS011;15011;53.380;10.034;2022-11-11T09:34:41;27.00;;;13.43;;
27576;SDS011;15011;53.380;10.034;2022-11-11T09:39:42;30.13;;;14.98;;
27576;SDS011;15011;53.380;10.034;2022-11-11T09:55:05;32.28;;;16.35;;
27576;SDS011;15011;53.380;10.034;2022-11-11T10:00:15;29.08;;;15.63;;
27576;SDS011;15011;53.380;10.034;2022-11-11T10:10:48;26.02;;;15.10;;
27576;SDS011;15011;53.380;10.034;2022-11-11T10:15:57;30.50;;;16.30;;
27576;SDS011;15011;53.380;10.034;2022-11-11T10:21:33;27.05;;;15.00;;
27576;SDS011;15011;53.380;10.034;2022-11-11T10:26:40;28.40;;;14.35;;
27576;SDS011;15011;53.380;10.034;2022-11-11T10:31:41;27.58;;;14.52;;
27576;SDS011;15011;53.380;10.034;2022-11-11T10:36:50;24.73;;;13.38;;
27576;SDS011;15011;53.380;10.034;2022-11-11T10:41:53;26.60;;;14.40;;
27576;SDS011;15011;53.380;10.034;2022-11-11T11:02:41;21.00;;;12.88;;
27576;SDS011;15011;53.380;10.034;2022-11-11T11:07:47;20.73;;;11.20;;
27576;SDS011;15011;53.380;10.034;2022-11-11T11:18:01;19.95;;;12.23;;
27576;SDS011;15011;53.380;10.034;2022-11-11T11:23:03;19.88;;;11.50;;
27576;SDS011;15011;53.380;10.034;2022-11-11T11:28:06;20.05;;;11.13;;
27576;SDS011;15011;53.380;10.034;2022-11-11T11:33:10;18.45;;;11.00;;
27576;SDS011;15011;53.380;10.034;2022-11-11T11:38:11;21.03;;;11.47;;
27576;SDS011;15011;53.380;10.034;2022-11-11T12:10:28;13.93;;;9.38;;
27576;SDS011;15011;53.380;10.034;2022-11-11T12:21:08;17.08;;;8.23;;
27576;SDS011;15011;53.380;10.034;2022-11-11T12:31:32;16.52;;;8.02;;
27576;SDS011;15011;53.380;10.034;2022-11-11T12:42:10;15.10;;;7.90;;
27576;SDS011;15011;53.380;10.034;2022-11-11T12:57:45;14.63;;;7.60;;
27576;SDS011;15011;53.380;10.034;2022-11-11T13:08:32;12.63;;;6.88;;
27576;SDS011;15011;53.380;10.034;2022-11-11T13:19:02;14.82;;;7.25;;
27576;SDS011;15011;53.380;10.034;2022-11-11T13:24:19;15.88;;;6.50;;
27576;SDS011;15011;53.380;10.034;2022-11-11T13:34:45;13.85;;;6.60;;
27576;SDS011;15011;53.380;10.034;2022-11-11T13:39:47;10.25;;;5.93;;
27576;SDS011;15011;53.380;10.034;2022-11-11T13:44:49;10.88;;;5.50;;
27576;SDS011;15011;53.380;10.034;2022-11-11T13:55:04;10.73;;;5.67;;
27576;SDS011;15011;53.380;10.034;2022-11-11T14:05:18;13.52;;;5.78;;
27576;SDS011;15011;53.380;10.034;2022-11-11T14:20:52;12.23;;;4.50;;
27576;SDS011;15011;53.380;10.034;2022-11-11T14:36:18;11.77;;;5.07;;
27576;SDS011;15011;53.380;10.034;2022-11-11T14:41:49;13.55;;;5.05;;
27576;SDS011;15011;53.380;10.034;2022-11-11T14:52:14;12.40;;;4.53;;
27576;SDS011;15011;53.380;10.034;2022-11-11T14:57:19;9.03;;;4.03;;
27576;SDS011;15011;53.380;10.034;2022-11-11T15:02:24;10.25;;;5.03;;
27576;SDS011;15011;53.380;10.034;2022-11-11T15:39:16;41.17;;;6.93;;
27576;SDS011;15011;53.380;10.034;2022-11-11T15:54:37;11.52;;;6.00;;
27576;SDS011;15011;53.380;10.034;2022-11-11T15:59:37;19.73;;;6.90;;
27576;SDS011;15011;53.380;10.034;2022-11-11T16:04:44;12.23;;;6.10;;
27576;SDS011;15011;53.380;10.034;2022-11-11T16:09:46;12.93;;;6.60;;
27576;SDS011;15011;53.380;10.034;2022-11-11T16:14:46;17.20;;;6.85;;
27576;SDS011;15011;53.380;10.034;2022-11-11T16:19:48;13.73;;;6.63;;
27576;SDS011;15011;53.380;10.034;2022-11-11T16:24:49;20.35;;;6.72;;
27576;SDS011;15011;53.380;10.034;2022-11-11T16:29:50;13.98;;;8.02;;
27576;SDS011;15011;53.380;10.034;2022-11-11T16:34:51;15.85;;;8.65;;
27576;SDS011;15011;53.380;10.034;2022-11-11T16:39:53;19.02;;;7.65;;
27576;SDS011;15011;53.380;10.034;2022-11-11T16:45:04;19.33;;;9.90;;
27576;SDS011;15011;53.380;10.034;2022-11-11T16:50:27;17.13;;;10.27;;
27576;SDS011;15011;53.380;10.034;2022-11-11T16:55:31;21.10;;;10.32;;
27576;SDS011;15011;53.380;10.034;2022-11-11T17:00:35;19.23;;;10.43;;
27576;SDS011;15011;53.380;10.034;2022-11-11T17:05:49;20.63;;;10.55;;
27576;SDS011;15011;53.380;10.034;2022-11-11T17:10:50;18.92;;;10.77;;
27576;SDS011;15011;53.380;10.034;2022-11-11T17:15:51;19.90;;;10.55;;
27576;SDS011;15011;53.380;10.034;2022-11-11T17:20:53;25.75;;;16.30;;
27576;SDS011;15011;53.380;10.034;2022-11-11T17:25:54;95.47;;;46.47;;
27576;SDS011;15011;53.380;10.034;2022-11-11T17:30:55;237.63;;;118.53;;
27576;SDS011;15011;53.380;10.034;2022-11-11T17:35:56;100.80;;;54.17;;
27576;SDS011;15011;53.380;10.034;2022-11-11T17:40:57;70.60;;;36.65;;
27576;SDS011;15011;53.380;10.034;2022-11-11T17:46:01;60.97;;;30.40;;
27576;SDS011;15011;53.380;10.034;2022-11-11T17:51:02;32.83;;;17.02;;
27576;SDS011;15011;53.380;10.034;2022-11-11T17:56:04;30.02;;;17.45;;
27576;SDS011;15011;53.380;10.034;2022-11-11T18:01:07;25.33;;;13.00;;
27576;SDS011;15011;53.380;10.034;2022-11-11T18:06:08;21.87;;;12.40;;
27576;SDS011;15011;53.380;10.034;2022-11-11T18:11:09;20.52;;;11.02;;
27576;SDS011;15011;53.380;10.034;2022-11-11T18:16:14;19.75;;;10.80;;
27576;SDS011;15011;53.380;10.034;2022-11-11T18:21:18;24.73;;;10.65;;
27576;SDS011;15011;53.380;10.034;2022-11-11T18:26:20;15.38;;;11.30;;
27576;SDS011;15011;53.380;10.034;2022-11-11T18:31:21;17.27;;;11.15;;
27576;SDS011;15011;53.380;10.034;2022-11-11T18:36:21;27.60;;;15.95;;
27576;SDS011;15011;53.380;10.034;2022-11-11T18:41:22;28.15;;;15.90;;
27576;SDS011;15011;53.380;10.034;2022-11-11T18:46:24;23.95;;;14.05;;
27576;SDS011;15011;53.380;10.034;2022-11-11T18:56:27;24.75;;;13.95;;
27576;SDS011;15011;53.380;10.034;2022-11-11T19:01:29;24.60;;;13.17;;
27576;SDS011;15011;53.380;10.034;2022-11-11T19:06:31;25.85;;;13.95;;
27576;SDS011;15011;53.380;10.034;2022-11-11T19:11:34;22.70;;;12.00;;
27576;SDS011;15011;53.380;10.034;2022-11-11T19:16:37;27.17;;;12.73;;
27576;SDS011;15011;53.380;10.034;2022-11-11T19:21:38;25.00;;;13.80;;
27576;SDS011;15011;53.380;10.034;2022-11-11T19:26:39;26.15;;;13.02;;
27576;SDS011;15011;53.380;10.034;2022-11-11T19:31:41;20.90;;;10.83;;
27576;SDS011;15011;53.380;10.034;2022-11-11T19:36:41;27.20;;;14.68;;
27576;SDS011;15011;53.380;10.034;2022-11-11T19:41:42;23.45;;;13.57;;
27576;SDS011;15011;53.380;10.034;2022-11-11T19:46:42;20.55;;;11.45;;
27576;SDS011;15011;53.380;10.034;2022-11-11T19:51:43;20.10;;;11.95;;
27576;SDS011;15011;53.380;10.034;2022-11-11T19:56:44;22.95;;;11.52;;
27576;SDS011;15011;53.380;10.034;2022-11-11T20:01:44;20.45;;;12.13;;
27576;SDS011;15011;53.380;10.034;2022-11-11T20:06:45;19.17;;;9.55;;
27576;SDS011;15011;53.380;10.034;2022-11-11T20:11:45;20.05;;;9.60;;
27576;SDS011;15011;53.380;10.034;2022-11-11T20:16:46;13.85;;;8.63;;
27576;SDS011;15011;53.380;10.034;2022-11-11T20:21:46;20.60;;;9.93;;
27576;SDS011;15011;53.380;10.034;2022-11-11T20:26:46;20.90;;;10.02;;
27576;SDS011;15011;53.380;10.034;2022-11-11T20:31:47;17.92;;;8.60;;
27576;SDS011;15011;53.380;10.034;2022-11-11T20:36:48;15.52;;;9.40;;
27576;SDS011;15011;53.380;10.034;2022-11-11T20:41:48;18.75;;;9.40;;
27576;SDS011;15011;53.380;10.034;2022-11-11T20:46:49;17.23;;;9.98;;
27576;SDS011;15011;53.380;10.034;2022-11-11T20:51:50;19.90;;;10.48;;
27576;SDS011;15011;53.380;10.034;2022-11-11T20:56:50;16.88;;;11.93;;
27576;SDS011;15011;53.380;10.034;2022-11-11T21:01:52;21.08;;;10.68;;
27576;SDS011;15011;53.380;10.034;2022-11-11T21:06:52;17.75;;;10.52;;
27576;SDS011;15011;53.380;10.034;2022-11-11T21:11:53;19.90;;;10.25;;
27576;SDS011;15011;53.380;10.034;2022-11-11T21:16:53;21.02;;;9.80;;
27576;SDS011;15011;53.380;10.034;2022-11-11T21:21:54;20.65;;;11.23;;
27576;SDS011;15011;53.380;10.034;2022-11-11T21:26:54;16.15;;;9.15;;
27576;SDS011;15011;53.380;10.034;2022-11-11T21:31:54;16.30;;;9.57;;
27576;SDS011;15011;53.380;10.034;2022-11-11T21:36:55;17.55;;;9.30;;
27576;SDS011;15011;53.380;10.034;2022-11-11T21:41:55;23.20;;;11.23;;
27576;SDS011;15011;53.380;10.034;2022-11-11T21:46:56;17.77;;;10.55;;
27576;SDS011;15011;53.380;10.034;2022-11-11T21:51:56;18.73;;;10.98;;
27576;SDS011;15011;53.380;10.034;2022-11-11T21:56:57;24.98;;;12.45;;
27576;SDS011;15011;53.380;10.034;2022-11-11T22:01:57;22.00;;;11.88;;
27576;SDS011;15011;53.380;10.034;2022-11-11T22:06:58;19.90;;;11.40;;
27576;SDS011;15011;53.380;10.034;2022-11-11T22:11:58;18.95;;;10.63;;
27576;SDS011;15011;53.380;10.034;2022-11-11T22:16:58;20.08;;;11.45;;
27576;SDS011;15011;53.380;10.034;2022-11-11T22:21:59;25.83;;;13.18;;
27576;SDS011;15011;53.380;10.034;2022-11-11T22:26:59;23.55;;;12.48;;
27576;SDS011;15011;53.380;10.034;2022-11-11T22:32:00;31.27;;;14.88;;
27576;SDS011;15011;53.380;10.034;2022-11-11T22:37:00;28.23;;;13.35;;
27576;SDS011;15011;53.380;10.034;2022-11-11T22:42:02;26.75;;;13.85;;
27576;SDS011;15011;53.380;10.034;2022-11-11T22:47:02;24.50;;;15.65;;
27576;SDS011;15011;53.380;10.034;2022-11-11T22:52:03;34.67;;;14.95;;
27576;SDS011;15011;53.380;10.034;2022-11-11T22:57:03;30.38;;;17.33;;
27576;SDS011;15011;53.380;10.034;2022-11-11T23:02:03;32.15;;;18.42;;
27576;SDS011;15011;53.380;10.034;2022-11-11T23:07:04;21.95;;;13.98;;
27576;SDS011;15011;53.380;10.034;2022-11-11T23:12:05;29.33;;;16.30;;
27576;SDS011;15011;53.380;10.034;2022-11-11T23:17:06;33.33;;;17.48;;
27576;SDS011;15011;53.380;10.034;2022-11-11T23:22:06;39.88;;;20.60;;
27576;SDS011;15011;53.380;10.034;2022-11-11T23:27:07;32.03;;;18.45;;
27576;SDS011;15011;53.380;10.034;2022-11-11T23:32:07;38.65;;;19.00;;
27576;SDS011;15011;53.380;10.034;2022-11-11T23:37:07;24.85;;;16.27;;
27576;SDS011;15011;53.380;10.034;2022-11-11T23:42:08;27.38;;;13.55;;
27576;SDS011;15011;53.380;10.034;2022-11-11T23:47:08;27.45;;;14.65;;
27576;SDS011;15011;53.380;10.034;2022-11-11T23:52:09;27.48;;;15.82;;
27576;SDS011;15011;53.380;10.034;2022-11-11T23:57:09;28.92;;;16.38;;
